createdAt,value
2023-03-18T00:02:28.021Z,22.96
2023-03-18T00:06:28.138Z,22.92
2023-03-18T00:10:28.319Z,22.95
2023-03-18T00:14:28.436Z,22.95
2023-03-18T00:18:28.632Z,22.99
2023-03-18T00:22:28.815Z,22.98
2023-03-18T00:26:28.999Z,22.98
2023-03-18T00:30:30.436Z,23.01
2023-03-18T00:34:29.377Z,23.06
2023-03-18T00:38:29.556Z,23.05
2023-03-18T00:42:29.742Z,23.13
2023-03-18T00:46:30.079Z,23.06
2023-03-18T00:50:30.782Z,23.10
2023-03-18T00:54:30.643Z,23.13
2023-03-18T00:58:32.490Z,23.05
2023-03-18T01:02:30.845Z,23.08
2023-03-18T01:06:30.958Z,23.06
2023-03-18T01:10:31.313Z,23.14
2023-03-18T01:14:31.426Z,23.15
2023-03-18T01:18:32.044Z,23.09
2023-03-18T01:22:31.502Z,23.14
2023-03-18T01:26:31.274Z,23.12
2023-03-18T01:30:31.379Z,23.14
2023-03-18T01:34:31.191Z,23.13
2023-03-18T01:38:31.200Z,23.12
2023-03-18T01:42:31.163Z,23.12
2023-03-18T01:46:31.289Z,23.12
2023-03-18T01:50:31.472Z,23.21
2023-03-18T01:54:31.179Z,23.12
2023-03-18T01:58:31.250Z,23.18
2023-03-18T02:02:31.114Z,23.16
2023-03-18T02:06:31.168Z,23.16
2023-03-18T02:10:31.200Z,23.13
2023-03-18T02:14:31.102Z,23.19
2023-03-18T02:18:30.988Z,23.16
2023-03-18T02:22:31.078Z,23.18
2023-03-18T02:26:30.949Z,23.18
2023-03-18T02:30:31.253Z,23.14
2023-03-18T02:34:30.900Z,23.16
2023-03-18T02:38:30.869Z,23.19
2023-03-18T02:42:33.549Z,23.16
2023-03-18T02:46:31.200Z,23.19
2023-03-18T02:50:31.101Z,23.20
2023-03-18T02:54:30.716Z,23.19
2023-03-18T02:58:31.037Z,23.22
2023-03-18T03:02:32.682Z,23.20
2023-03-18T03:06:30.690Z,23.22
2023-03-18T03:10:31.332Z,23.20
2023-03-18T03:14:30.771Z,23.25
2023-03-18T03:18:30.753Z,23.22
2023-03-18T03:22:30.718Z,23.20
2023-03-18T03:26:30.687Z,23.22
2023-03-18T03:30:30.748Z,23.17
2023-03-18T03:34:30.579Z,23.25
2023-03-18T03:38:30.552Z,23.20
2023-03-18T03:42:30.574Z,23.19
2023-03-18T03:46:31.080Z,23.23
2023-03-18T03:50:30.911Z,23.25
2023-03-18T03:54:30.649Z,23.25
2023-03-18T03:58:30.727Z,23.23
2023-03-18T04:02:30.711Z,23.23
2023-03-18T04:06:30.615Z,23.25
2023-03-18T04:10:30.829Z,23.24
2023-03-18T04:14:30.458Z,23.25
2023-03-18T04:18:30.492Z,23.24
2023-03-18T04:22:30.343Z,23.23
2023-03-18T04:26:30.369Z,23.25
2023-03-18T04:30:30.742Z,23.23
2023-03-18T04:34:30.265Z,23.27
2023-03-18T04:38:30.323Z,23.25
2023-03-18T04:42:30.227Z,23.30
2023-03-18T04:46:30.316Z,23.28
2023-03-18T04:50:30.560Z,23.27
2023-03-18T04:54:30.177Z,23.28
2023-03-18T04:58:30.181Z,23.27
2023-03-18T05:02:30.174Z,23.28
2023-03-18T05:06:30.717Z,23.32
2023-03-18T05:10:30.197Z,23.30
2023-03-18T05:14:30.253Z,23.32
2023-03-18T05:18:30.161Z,23.31
2023-03-18T05:22:30.213Z,23.29
2023-03-18T05:26:30.262Z,23.36
2023-03-18T05:30:30.260Z,23.34
2023-03-18T05:34:30.302Z,23.36
2023-03-18T05:38:30.407Z,23.31
2023-03-18T05:42:30.363Z,23.33
2023-03-18T05:46:30.385Z,23.36
2023-03-18T05:50:31.141Z,23.36
2023-03-18T05:54:30.200Z,23.32
2023-03-18T05:58:30.171Z,23.36
2023-03-18T06:02:30.327Z,23.38
2023-03-18T06:06:30.191Z,23.37
2023-03-18T06:10:31.194Z,23.35
2023-03-18T06:14:31.189Z,23.35
2023-03-18T06:18:30.175Z,23.36
2023-03-18T06:22:30.718Z,23.36
2023-03-18T06:26:30.174Z,23.35
2023-03-18T06:30:30.127Z,23.34
2023-03-18T06:34:30.214Z,23.33
2023-03-18T06:38:30.096Z,23.32
2023-03-18T06:42:30.071Z,23.35
2023-03-18T06:46:30.104Z,23.37
2023-03-18T06:50:30.621Z,23.33
2023-03-18T06:54:30.694Z,23.29
2023-03-18T06:58:30.041Z,23.35
2023-03-18T07:02:30.075Z,23.34
2023-03-18T07:06:29.982Z,23.31
2023-03-18T07:10:29.962Z,23.34
2023-03-18T07:14:29.999Z,23.31
2023-03-18T07:18:29.956Z,23.32
2023-03-18T07:22:29.974Z,23.27
2023-03-18T07:26:29.938Z,23.27
2023-03-18T07:30:30.141Z,23.20
2023-03-18T07:34:30.156Z,23.23
2023-03-18T07:38:30.322Z,23.23
2023-03-18T07:42:30.467Z,23.17
2023-03-18T07:46:30.721Z,23.22
2023-03-18T07:50:30.868Z,23.22
2023-03-18T07:54:31.032Z,23.20
2023-03-18T07:58:31.065Z,23.23
2023-03-18T08:02:31.039Z,23.29
2023-03-18T08:06:30.946Z,23.21
2023-03-18T08:10:30.980Z,23.21
2023-03-18T08:14:30.890Z,23.24
2023-03-18T08:18:30.859Z,23.21
2023-03-18T08:22:31.213Z,23.27
2023-03-18T08:26:30.772Z,23.18
2023-03-18T08:30:30.745Z,23.14
2023-03-18T08:34:30.919Z,23.08
2023-03-18T08:38:30.934Z,23.05
2023-03-18T08:42:30.908Z,23.10
2023-03-18T08:46:30.835Z,23.06
2023-03-18T08:50:30.858Z,23.10
2023-03-18T08:54:31.223Z,23.04
2023-03-18T08:58:30.733Z,23.01
2023-03-18T09:02:30.667Z,23.04
2023-03-18T09:06:30.641Z,23.09
2023-03-18T09:10:30.732Z,23.08
2023-03-18T09:14:30.590Z,23.03
2023-03-18T09:18:31.254Z,23.02
2023-03-18T09:22:30.528Z,23.02
2023-03-18T09:26:30.637Z,23.02
2023-03-18T09:30:31.263Z,22.98
2023-03-18T09:34:30.850Z,22.98
2023-03-18T09:38:30.925Z,22.92
2023-03-18T09:42:31.719Z,22.90
2023-03-18T09:46:31.096Z,22.81
2023-03-18T09:50:31.087Z,22.81
2023-03-18T09:54:31.112Z,22.78
2023-03-18T09:58:31.036Z,22.72
2023-03-18T10:02:31.040Z,22.73
2023-03-18T10:06:31.138Z,22.75
2023-03-18T10:10:31.053Z,22.70
2023-03-18T10:14:31.067Z,22.72
2023-03-18T10:18:31.710Z,22.66
2023-03-18T10:22:31.083Z,22.71
2023-03-18T10:26:31.041Z,22.62
2023-03-18T10:30:31.122Z,22.65
2023-03-18T10:34:31.232Z,22.59
2023-03-18T10:38:31.430Z,22.61
2023-03-18T10:42:31.398Z,22.55
2023-03-18T10:46:31.424Z,22.51
2023-03-18T10:50:32.066Z,22.51
2023-03-18T10:54:31.258Z,22.47
2023-03-18T10:58:31.228Z,22.46
2023-03-18T11:02:31.263Z,22.46
2023-03-18T11:06:31.571Z,22.44
2023-03-18T11:10:31.387Z,22.43
2023-03-18T11:14:31.222Z,22.40
2023-03-18T11:18:31.291Z,22.40
2023-03-18T11:22:31.024Z,22.35
2023-03-18T11:26:31.286Z,22.32
2023-03-18T11:30:41.126Z,22.38
2023-03-18T11:34:32.066Z,22.33
2023-03-18T11:38:30.986Z,22.34
2023-03-18T11:42:31.080Z,22.33
2023-03-18T11:46:30.936Z,22.33
2023-03-18T11:50:31.234Z,22.33
2023-03-18T11:54:30.866Z,22.29
2023-03-18T11:58:31.250Z,22.27
2023-03-18T12:02:30.758Z,22.30
2023-03-18T12:06:30.780Z,22.27
2023-03-18T12:10:30.940Z,22.30
2023-03-18T12:14:30.800Z,22.32
2023-03-18T12:18:30.603Z,22.26
2023-03-18T12:22:30.824Z,22.31
2023-03-18T12:26:31.007Z,22.31
2023-03-18T12:30:31.322Z,22.34
2023-03-18T12:34:31.312Z,22.28
2023-03-18T12:38:31.851Z,22.29
2023-03-18T12:42:34.845Z,22.33
2023-03-18T12:46:31.884Z,22.36
2023-03-18T12:50:31.515Z,22.33
2023-03-18T12:54:31.484Z,22.33
2023-03-18T12:58:31.451Z,22.34
2023-03-18T13:02:31.492Z,22.33
2023-03-18T13:06:31.403Z,22.33
2023-03-18T13:10:31.496Z,22.34
2023-03-18T13:14:31.292Z,22.34
2023-03-18T13:18:31.246Z,22.37
2023-03-18T13:22:31.230Z,22.38
2023-03-18T13:26:31.185Z,22.40
2023-03-18T13:30:31.500Z,22.42
2023-03-18T13:34:31.090Z,22.40
2023-03-18T13:38:31.119Z,22.38
2023-03-18T13:42:31.230Z,22.45
2023-03-18T13:46:31.458Z,22.46
2023-03-18T13:50:31.561Z,22.46
2023-03-18T13:54:31.713Z,22.45
2023-03-18T13:58:31.830Z,22.43
2023-03-18T14:02:32.064Z,22.43
2023-03-18T14:06:32.231Z,22.51
2023-03-18T14:10:32.848Z,22.45
2023-03-18T14:14:32.643Z,22.49
2023-03-18T14:18:33.350Z,22.53
2023-03-18T14:22:32.812Z,22.55
2023-03-18T14:26:32.821Z,22.58
2023-03-18T14:30:32.743Z,22.59
2023-03-18T14:34:32.741Z,22.55
2023-03-18T14:38:32.698Z,22.64
2023-03-18T14:42:32.672Z,22.62
2023-03-18T14:46:32.691Z,22.62
2023-03-18T14:50:32.606Z,22.65
2023-03-18T14:54:32.518Z,22.62
2023-03-18T14:58:32.705Z,22.61
2023-03-18T15:02:33.353Z,22.72
2023-03-18T15:06:33.054Z,22.67
2023-03-18T15:10:33.141Z,22.70
2023-03-18T15:14:33.362Z,22.68
2023-03-18T15:18:33.392Z,22.76
2023-03-18T15:22:33.302Z,22.74
2023-03-18T15:26:33.284Z,22.81
2023-03-18T15:30:33.194Z,22.86
2023-03-18T15:34:33.217Z,22.87
2023-03-18T15:38:33.141Z,22.92
2023-03-18T15:42:33.118Z,22.90
2023-03-18T15:46:33.083Z,22.91
2023-03-18T15:50:33.062Z,22.90
2023-03-18T15:54:32.975Z,22.90
2023-03-18T15:58:32.945Z,22.87
2023-03-18T16:02:34.055Z,22.89
2023-03-18T16:06:32.839Z,22.89
2023-03-18T16:10:32.883Z,22.89
2023-03-18T16:14:32.783Z,22.89
2023-03-18T16:18:32.751Z,22.90
2023-03-18T16:22:33.785Z,22.94
2023-03-18T16:26:32.701Z,22.94
2023-03-18T16:30:32.932Z,22.98
2023-03-18T16:34:32.964Z,22.96
2023-03-18T16:38:33.187Z,22.94
2023-03-18T16:42:33.263Z,23.00
2023-03-18T16:46:33.546Z,23.03
2023-03-18T16:50:34.389Z,23.04
2023-03-18T16:54:33.804Z,22.97
2023-03-18T16:58:34.378Z,22.98
2023-03-18T17:02:34.247Z,23.02
2023-03-18T17:06:34.483Z,23.07
2023-03-18T17:10:34.646Z,23.06
2023-03-18T17:14:34.699Z,23.10
2023-03-18T17:18:34.550Z,23.06
2023-03-18T17:22:34.556Z,23.09
2023-03-18T17:26:34.481Z,23.03
2023-03-18T17:30:34.554Z,23.08
2023-03-18T17:34:34.431Z,23.00
2023-03-18T17:38:34.393Z,23.03
2023-03-18T17:42:34.430Z,22.98
2023-03-18T17:46:34.463Z,22.89
2023-03-18T17:50:34.287Z,22.84
2023-03-18T17:54:34.260Z,22.93
2023-03-18T17:58:34.418Z,22.93
2023-03-18T18:02:34.203Z,22.88
2023-03-18T18:06:34.096Z,22.91
2023-03-18T18:10:34.120Z,22.80
2023-03-18T18:14:34.146Z,22.78
2023-03-18T18:18:34.431Z,22.75
2023-03-18T18:22:34.166Z,22.75
2023-03-18T18:26:34.178Z,22.76
2023-03-18T18:30:34.198Z,22.73
2023-03-18T18:34:34.132Z,22.66
2023-03-18T18:38:34.087Z,22.67
2023-03-18T18:42:34.109Z,22.63
2023-03-18T18:46:34.467Z,22.64
2023-03-18T18:50:34.103Z,22.58
2023-03-18T18:54:34.080Z,22.60
2023-03-18T18:58:34.092Z,22.60
2023-03-18T19:02:34.065Z,22.59
2023-03-18T19:06:34.104Z,22.58
2023-03-18T19:10:34.093Z,22.55
2023-03-18T19:14:34.465Z,22.56
2023-03-18T19:18:34.958Z,22.50
2023-03-18T19:22:34.229Z,22.56
2023-03-18T19:26:34.281Z,22.51
2023-03-18T19:30:34.459Z,22.50
2023-03-18T19:34:34.436Z,22.51
2023-03-18T19:38:34.483Z,22.51
2023-03-18T19:42:34.558Z,22.45
2023-03-18T19:46:34.652Z,22.52
2023-03-18T19:50:34.752Z,22.46
2023-03-18T19:54:36.028Z,22.48
2023-03-18T19:58:34.953Z,22.45
2023-03-18T20:02:35.157Z,22.48
2023-03-18T20:06:35.183Z,22.45
2023-03-18T20:10:35.564Z,22.51
2023-03-18T20:14:35.330Z,22.48
2023-03-18T20:18:35.412Z,22.48
2023-03-18T20:22:35.483Z,22.48
2023-03-18T20:26:35.652Z,22.46
2023-03-18T20:30:35.676Z,22.48
2023-03-18T20:34:35.700Z,22.57
2023-03-18T20:38:35.821Z,22.52
2023-03-18T20:42:35.897Z,22.54
2023-03-18T20:46:36.050Z,22.58
2023-03-18T20:50:36.042Z,22.57
2023-03-18T20:54:36.121Z,22.61
2023-03-18T20:58:36.349Z,22.67
2023-03-18T21:02:36.498Z,22.61
2023-03-18T21:06:36.501Z,22.66
2023-03-18T21:10:36.571Z,22.62
2023-03-18T21:14:37.517Z,22.67
2023-03-18T21:18:36.827Z,22.70
2023-03-18T21:22:37.005Z,22.69
2023-03-18T21:26:37.050Z,22.74
2023-03-18T21:30:37.156Z,22.76
2023-03-18T21:34:37.217Z,22.79
2023-03-18T21:38:37.342Z,22.82
2023-03-18T21:42:37.525Z,22.83
2023-03-18T21:46:38.565Z,22.85
2023-03-18T21:50:37.718Z,22.85
2023-03-18T21:54:37.948Z,22.82
2023-03-18T21:58:38.029Z,22.92
2023-03-18T22:02:38.253Z,22.89
2023-03-18T22:06:38.328Z,22.92
2023-03-18T22:10:38.560Z,22.92
2023-03-18T22:14:38.637Z,22.94
2023-03-18T22:18:38.769Z,23.00
2023-03-18T22:22:39.040Z,23.03
2023-03-18T22:26:39.064Z,23.04
2023-03-18T22:30:39.241Z,23.04
2023-03-18T22:34:39.432Z,23.05
2023-03-18T22:38:39.588Z,23.07
2023-03-18T22:42:39.865Z,23.09
2023-03-18T22:46:40.047Z,23.04
2023-03-18T22:50:40.177Z,23.10
2023-03-18T22:54:40.365Z,23.10
2023-03-18T22:58:40.561Z,23.13
2023-03-18T23:02:40.721Z,23.16
2023-03-18T23:06:40.846Z,23.14
2023-03-18T23:10:40.979Z,23.14
2023-03-18T23:14:42.013Z,23.20
2023-03-18T23:18:41.425Z,23.25
2023-03-18T23:22:41.515Z,23.20
2023-03-18T23:26:41.760Z,23.25
2023-03-18T23:30:41.962Z,23.24
2023-03-18T23:34:42.130Z,23.23
2023-03-18T23:38:42.411Z,23.23
2023-03-18T23:42:42.436Z,23.29
2023-03-18T23:46:43.571Z,23.27
2023-03-18T23:50:42.980Z,23.27
2023-03-18T23:54:43.121Z,23.21
2023-03-18T23:58:43.303Z,23.23
